sensor_id;sensor_type;location;lat;lon;timestamp;P1;durP1;ratioP1;P2;durP2;ratioP2
18090;SDS011;9172;49.948;9.208;2023-01-10T00:00:13;2.00;;;1.23;;
18090;SDS011;9172;49.948;9.208;2023-01-10T00:02:42;1.63;;;1.00;;
18090;SDS011;9172;49.948;9.208;2023-01-10T00:05:11;3.23;;;1.23;;
18090;SDS011;9172;49.948;9.208;2023-01-10T00:07:41;2.67;;;1.40;;
18090;SDS011;9172;49.948;9.208;2023-01-10T00:10:10;1.80;;;1.13;;
18090;SDS011;9172;49.948;9.208;2023-01-10T00:12:40;4.20;;;1.37;;
18090;SDS011;9172;49.948;9.208;2023-01-10T00:15:27;1.70;;;1.10;;
18090;SDS011;9172;49.948;9.208;2023-01-10T00:17:58;1.93;;;1.20;;
18090;SDS011;9172;49.948;9.208;2023-01-10T00:20:27;3.40;;;1.20;;
18090;SDS011;9172;49.948;9.208;2023-01-10T00:22:57;3.10;;;1.47;;
18090;SDS011;9172;49.948;9.208;2023-01-10T00:25:26;3.53;;;1.27;;
18090;SDS011;9172;49.948;9.208;2023-01-10T00:27:54;2.73;;;1.50;;
18090;SDS011;9172;49.948;9.208;2023-01-10T00:30:25;3.20;;;1.47;;
18090;SDS011;9172;49.948;9.208;2023-01-10T00:32:54;2.30;;;1.20;;
18090;SDS011;9172;49.948;9.208;2023-01-10T00:35:23;3.97;;;1.57;;
18090;SDS011;9172;49.948;9.208;2023-01-10T00:37:52;3.00;;;1.23;;
18090;SDS011;9172;49.948;9.208;2023-01-10T00:40:22;4.77;;;1.60;;
18090;SDS011;9172;49.948;9.208;2023-01-10T00:42:53;2.80;;;1.30;;
18090;SDS011;9172;49.948;9.208;2023-01-10T00:45:39;2.83;;;1.40;;
18090;SDS011;9172;49.948;9.208;2023-01-10T00:48:10;3.47;;;1.47;;
18090;SDS011;9172;49.948;9.208;2023-01-10T00:50:38;2.40;;;1.17;;
18090;SDS011;9172;49.948;9.208;2023-01-10T00:53:07;1.20;;;0.93;;
18090;SDS011;9172;49.948;9.208;2023-01-10T00:55:36;2.80;;;1.27;;
18090;SDS011;9172;49.948;9.208;2023-01-10T00:58:05;2.40;;;1.13;;
18090;SDS011;9172;49.948;9.208;2023-01-10T01:00:36;2.23;;;1.00;;
18090;SDS011;9172;49.948;9.208;2023-01-10T01:03:05;3.37;;;1.27;;
18090;SDS011;9172;49.948;9.208;2023-01-10T01:05:39;1.93;;;1.13;;
18090;SDS011;9172;49.948;9.208;2023-01-10T01:08:07;1.80;;;1.10;;
18090;SDS011;9172;49.948;9.208;2023-01-10T01:10:36;2.57;;;1.20;;
18090;SDS011;9172;49.948;9.208;2023-01-10T01:13:06;2.87;;;1.53;;
18090;SDS011;9172;49.948;9.208;2023-01-10T01:15:36;2.27;;;1.10;;
18090;SDS011;9172;49.948;9.208;2023-01-10T01:18:04;0.97;;;0.90;;
18090;SDS011;9172;49.948;9.208;2023-01-10T01:20:33;2.67;;;1.20;;
18090;SDS011;9172;49.948;9.208;2023-01-10T01:23:04;1.83;;;1.17;;
18090;SDS011;9172;49.948;9.208;2023-01-10T01:25:33;3.67;;;1.20;;
18090;SDS011;9172;49.948;9.208;2023-01-10T01:28:02;3.73;;;1.10;;
18090;SDS011;9172;49.948;9.208;2023-01-10T01:30:31;1.50;;;1.40;;
18090;SDS011;9172;49.948;9.208;2023-01-10T01:32:59;2.37;;;1.10;;
18090;SDS011;9172;49.948;9.208;2023-01-10T01:35:29;1.03;;;0.90;;
18090;SDS011;9172;49.948;9.208;2023-01-10T01:37:58;5.67;;;1.20;;
18090;SDS011;9172;49.948;9.208;2023-01-10T01:40:28;1.77;;;1.07;;
18090;SDS011;9172;49.948;9.208;2023-01-10T01:42:57;1.60;;;1.10;;
18090;SDS011;9172;49.948;9.208;2023-01-10T01:45:36;3.57;;;0.83;;
18090;SDS011;9172;49.948;9.208;2023-01-10T01:48:26;1.10;;;1.00;;
18090;SDS011;9172;49.948;9.208;2023-01-10T01:51:00;2.27;;;1.27;;
18090;SDS011;9172;49.948;9.208;2023-01-10T01:53:34;3.30;;;1.00;;
18090;SDS011;9172;49.948;9.208;2023-01-10T01:56:07;2.20;;;1.20;;
18090;SDS011;9172;49.948;9.208;2023-01-10T01:58:43;1.33;;;1.20;;
18090;SDS011;9172;49.948;9.208;2023-01-10T02:01:13;1.37;;;0.90;;
18090;SDS011;9172;49.948;9.208;2023-01-10T02:03:44;2.17;;;1.33;;
18090;SDS011;9172;49.948;9.208;2023-01-10T02:06:15;2.23;;;1.20;;
18090;SDS011;9172;49.948;9.208;2023-01-10T02:08:46;2.27;;;1.23;;
18090;SDS011;9172;49.948;9.208;2023-01-10T02:11:17;1.30;;;0.87;;
18090;SDS011;9172;49.948;9.208;2023-01-10T02:13:45;3.83;;;1.10;;
18090;SDS011;9172;49.948;9.208;2023-01-10T02:16:17;1.30;;;1.03;;
18090;SDS011;9172;49.948;9.208;2023-01-10T02:18:45;3.07;;;1.13;;
18090;SDS011;9172;49.948;9.208;2023-01-10T02:21:21;3.90;;;1.10;;
18090;SDS011;9172;49.948;9.208;2023-01-10T02:27:46;5.50;;;1.60;;
18090;SDS011;9172;49.948;9.208;2023-01-10T02:30:28;1.30;;;1.20;;
18090;SDS011;9172;49.948;9.208;2023-01-10T02:33:05;2.87;;;0.93;;
18090;SDS011;9172;49.948;9.208;2023-01-10T02:35:47;1.80;;;0.97;;
18090;SDS011;9172;49.948;9.208;2023-01-10T02:38:37;2.17;;;1.10;;
18090;SDS011;9172;49.948;9.208;2023-01-10T02:41:12;3.33;;;0.90;;
18090;SDS011;9172;49.948;9.208;2023-01-10T02:43:45;1.33;;;1.10;;
18090;SDS011;9172;49.948;9.208;2023-01-10T02:46:16;1.13;;;0.93;;
18090;SDS011;9172;49.948;9.208;2023-01-10T02:48:50;0.90;;;0.90;;
18090;SDS011;9172;49.948;9.208;2023-01-10T02:51:20;1.10;;;0.93;;
18090;SDS011;9172;49.948;9.208;2023-01-10T02:53:50;1.10;;;0.80;;
18090;SDS011;9172;49.948;9.208;2023-01-10T02:56:28;2.17;;;1.00;;
18090;SDS011;9172;49.948;9.208;2023-01-10T02:59:11;2.30;;;1.10;;
18090;SDS011;9172;49.948;9.208;2023-01-10T03:01:59;1.87;;;1.00;;
18090;SDS011;9172;49.948;9.208;2023-01-10T03:04:32;1.70;;;0.93;;
18090;SDS011;9172;49.948;9.208;2023-01-10T03:07:07;1.10;;;0.97;;
18090;SDS011;9172;49.948;9.208;2023-01-10T03:09:39;1.10;;;0.83;;
18090;SDS011;9172;49.948;9.208;2023-01-10T03:12:11;2.37;;;1.27;;
18090;SDS011;9172;49.948;9.208;2023-01-10T03:14:41;1.10;;;0.87;;
18090;SDS011;9172;49.948;9.208;2023-01-10T03:19:49;3.30;;;1.00;;
18090;SDS011;9172;49.948;9.208;2023-01-10T03:22:21;1.00;;;0.90;;
18090;SDS011;9172;49.948;9.208;2023-01-10T03:24:52;1.80;;;0.87;;
18090;SDS011;9172;49.948;9.208;2023-01-10T03:27:24;1.30;;;1.03;;
18090;SDS011;9172;49.948;9.208;2023-01-10T03:29:56;2.40;;;0.90;;
18090;SDS011;9172;49.948;9.208;2023-01-10T03:32:28;1.17;;;0.80;;
18090;SDS011;9172;49.948;9.208;2023-01-10T03:34:58;3.00;;;1.10;;
18090;SDS011;9172;49.948;9.208;2023-01-10T03:37:30;5.63;;;1.70;;
18090;SDS011;9172;49.948;9.208;2023-01-10T03:40:04;2.10;;;0.83;;
18090;SDS011;9172;49.948;9.208;2023-01-10T03:42:37;2.43;;;0.90;;
18090;SDS011;9172;49.948;9.208;2023-01-10T03:45:27;1.27;;;0.97;;
18090;SDS011;9172;49.948;9.208;2023-01-10T03:47:59;1.53;;;0.87;;
18090;SDS011;9172;49.948;9.208;2023-01-10T03:50:30;2.47;;;1.00;;
18090;SDS011;9172;49.948;9.208;2023-01-10T03:53:01;1.20;;;0.90;;
18090;SDS011;9172;49.948;9.208;2023-01-10T03:55:31;1.30;;;0.90;;
18090;SDS011;9172;49.948;9.208;2023-01-10T03:58:01;2.10;;;1.00;;
18090;SDS011;9172;49.948;9.208;2023-01-10T04:00:30;1.23;;;0.90;;
18090;SDS011;9172;49.948;9.208;2023-01-10T04:02:58;3.50;;;1.23;;
18090;SDS011;9172;49.948;9.208;2023-01-10T04:05:27;0.90;;;0.90;;
18090;SDS011;9172;49.948;9.208;2023-01-10T04:07:56;2.10;;;1.27;;
18090;SDS011;9172;49.948;9.208;2023-01-10T04:10:26;1.80;;;1.00;;
18090;SDS011;9172;49.948;9.208;2023-01-10T04:12:58;2.30;;;1.10;;
18090;SDS011;9172;49.948;9.208;2023-01-10T04:15:27;2.53;;;1.20;;
18090;SDS011;9172;49.948;9.208;2023-01-10T04:17:56;3.13;;;1.40;;
18090;SDS011;9172;49.948;9.208;2023-01-10T04:20:26;2.80;;;1.10;;
18090;SDS011;9172;49.948;9.208;2023-01-10T04:22:54;3.53;;;1.60;;
18090;SDS011;9172;49.948;9.208;2023-01-10T04:25:23;5.33;;;1.27;;
18090;SDS011;9172;49.948;9.208;2023-01-10T04:27:54;4.77;;;1.10;;
18090;SDS011;9172;49.948;9.208;2023-01-10T04:30:22;3.80;;;1.20;;
18090;SDS011;9172;49.948;9.208;2023-01-10T04:32:52;6.33;;;1.67;;
18090;SDS011;9172;49.948;9.208;2023-01-10T04:35:21;5.63;;;1.73;;
18090;SDS011;9172;49.948;9.208;2023-01-10T04:37:51;4.97;;;1.07;;
18090;SDS011;9172;49.948;9.208;2023-01-10T04:40:21;2.20;;;1.17;;
18090;SDS011;9172;49.948;9.208;2023-01-10T04:42:50;7.63;;;1.70;;
18090;SDS011;9172;49.948;9.208;2023-01-10T04:45:19;4.00;;;1.20;;
18090;SDS011;9172;49.948;9.208;2023-01-10T04:47:49;7.33;;;1.40;;
18090;SDS011;9172;49.948;9.208;2023-01-10T04:50:18;4.20;;;1.10;;
18090;SDS011;9172;49.948;9.208;2023-01-10T04:52:46;2.83;;;1.20;;
18090;SDS011;9172;49.948;9.208;2023-01-10T04:55:16;6.73;;;1.50;;
18090;SDS011;9172;49.948;9.208;2023-01-10T04:57:46;5.33;;;1.23;;
18090;SDS011;9172;49.948;9.208;2023-01-10T05:00:15;3.97;;;1.33;;
18090;SDS011;9172;49.948;9.208;2023-01-10T05:02:45;4.87;;;1.00;;
18090;SDS011;9172;49.948;9.208;2023-01-10T05:05:13;6.13;;;1.53;;
18090;SDS011;9172;49.948;9.208;2023-01-10T05:07:45;5.57;;;1.60;;
18090;SDS011;9172;49.948;9.208;2023-01-10T05:10:13;7.47;;;1.20;;
18090;SDS011;9172;49.948;9.208;2023-01-10T05:12:44;4.80;;;1.37;;
18090;SDS011;9172;49.948;9.208;2023-01-10T05:15:13;9.27;;;1.80;;
18090;SDS011;9172;49.948;9.208;2023-01-10T05:17:42;2.77;;;1.20;;
18090;SDS011;9172;49.948;9.208;2023-01-10T05:20:11;1.77;;;1.07;;
18090;SDS011;9172;49.948;9.208;2023-01-10T05:22:41;4.70;;;1.57;;
18090;SDS011;9172;49.948;9.208;2023-01-10T05:25:11;3.13;;;1.37;;
18090;SDS011;9172;49.948;9.208;2023-01-10T05:27:40;8.63;;;1.80;;
18090;SDS011;9172;49.948;9.208;2023-01-10T05:30:10;3.90;;;1.50;;
18090;SDS011;9172;49.948;9.208;2023-01-10T05:32:40;3.37;;;1.40;;
18090;SDS011;9172;49.948;9.208;2023-01-10T05:35:09;5.93;;;1.70;;
18090;SDS011;9172;49.948;9.208;2023-01-10T05:37:39;2.97;;;1.57;;
18090;SDS011;9172;49.948;9.208;2023-01-10T05:40:11;7.83;;;1.83;;
18090;SDS011;9172;49.948;9.208;2023-01-10T05:42:40;5.13;;;1.80;;
18090;SDS011;9172;49.948;9.208;2023-01-10T05:45:09;7.23;;;1.70;;
18090;SDS011;9172;49.948;9.208;2023-01-10T05:47:38;6.13;;;1.60;;
18090;SDS011;9172;49.948;9.208;2023-01-10T05:50:09;3.83;;;1.40;;
18090;SDS011;9172;49.948;9.208;2023-01-10T05:52:38;7.97;;;1.87;;
18090;SDS011;9172;49.948;9.208;2023-01-10T05:55:07;4.07;;;2.00;;
18090;SDS011;9172;49.948;9.208;2023-01-10T05:57:37;5.00;;;1.50;;
18090;SDS011;9172;49.948;9.208;2023-01-10T06:00:06;6.37;;;1.63;;
18090;SDS011;9172;49.948;9.208;2023-01-10T06:02:37;7.20;;;1.77;;
18090;SDS011;9172;49.948;9.208;2023-01-10T06:05:06;5.27;;;1.87;;
18090;SDS011;9172;49.948;9.208;2023-01-10T06:07:36;8.03;;;1.50;;
18090;SDS011;9172;49.948;9.208;2023-01-10T06:10:06;9.00;;;1.93;;
18090;SDS011;9172;49.948;9.208;2023-01-10T06:12:38;4.23;;;1.87;;
18090;SDS011;9172;49.948;9.208;2023-01-10T06:15:07;6.60;;;1.50;;
18090;SDS011;9172;49.948;9.208;2023-01-10T06:17:37;7.17;;;2.40;;
18090;SDS011;9172;49.948;9.208;2023-01-10T06:20:06;4.17;;;1.60;;
18090;SDS011;9172;49.948;9.208;2023-01-10T06:22:38;9.27;;;1.70;;
18090;SDS011;9172;49.948;9.208;2023-01-10T06:25:08;4.60;;;2.17;;
18090;SDS011;9172;49.948;9.208;2023-01-10T06:27:38;9.90;;;2.20;;
18090;SDS011;9172;49.948;9.208;2023-01-10T06:30:08;6.80;;;1.73;;
18090;SDS011;9172;49.948;9.208;2023-01-10T06:32:39;10.27;;;1.60;;
18090;SDS011;9172;49.948;9.208;2023-01-10T06:35:08;7.17;;;1.73;;
18090;SDS011;9172;49.948;9.208;2023-01-10T06:37:38;7.03;;;1.80;;
18090;SDS011;9172;49.948;9.208;2023-01-10T06:40:08;10.77;;;2.03;;
18090;SDS011;9172;49.948;9.208;2023-01-10T06:42:40;8.77;;;2.17;;
18090;SDS011;9172;49.948;9.208;2023-01-10T06:45:09;5.87;;;1.83;;
18090;SDS011;9172;49.948;9.208;2023-01-10T06:47:39;9.53;;;2.10;;
18090;SDS011;9172;49.948;9.208;2023-01-10T06:50:09;8.87;;;2.40;;
18090;SDS011;9172;49.948;9.208;2023-01-10T06:52:39;7.53;;;1.90;;
18090;SDS011;9172;49.948;9.208;2023-01-10T06:55:08;6.57;;;2.17;;
18090;SDS011;9172;49.948;9.208;2023-01-10T06:57:37;7.50;;;2.30;;
18090;SDS011;9172;49.948;9.208;2023-01-10T07:00:08;4.30;;;1.60;;
18090;SDS011;9172;49.948;9.208;2023-01-10T07:02:38;5.43;;;1.60;;
18090;SDS011;9172;49.948;9.208;2023-01-10T07:05:07;6.63;;;1.50;;
18090;SDS011;9172;49.948;9.208;2023-01-10T07:07:36;5.57;;;1.97;;
18090;SDS011;9172;49.948;9.208;2023-01-10T07:10:06;5.73;;;2.13;;
18090;SDS011;9172;49.948;9.208;2023-01-10T07:12:36;8.20;;;2.37;;
18090;SDS011;9172;49.948;9.208;2023-01-10T07:15:06;10.53;;;2.10;;
18090;SDS011;9172;49.948;9.208;2023-01-10T07:17:36;8.30;;;1.73;;
18090;SDS011;9172;49.948;9.208;2023-01-10T07:20:05;5.17;;;2.27;;
18090;SDS011;9172;49.948;9.208;2023-01-10T07:22:36;6.10;;;1.80;;
18090;SDS011;9172;49.948;9.208;2023-01-10T07:25:07;6.43;;;2.00;;
18090;SDS011;9172;49.948;9.208;2023-01-10T07:27:37;8.37;;;2.50;;
18090;SDS011;9172;49.948;9.208;2023-01-10T07:30:09;5.83;;;1.70;;
18090;SDS011;9172;49.948;9.208;2023-01-10T07:32:38;3.40;;;1.67;;
18090;SDS011;9172;49.948;9.208;2023-01-10T07:35:07;5.17;;;1.60;;
18090;SDS011;9172;49.948;9.208;2023-01-10T07:37:37;7.00;;;1.93;;
18090;SDS011;9172;49.948;9.208;2023-01-10T07:40:07;6.17;;;2.10;;
18090;SDS011;9172;49.948;9.208;2023-01-10T07:42:38;7.93;;;1.93;;
18090;SDS011;9172;49.948;9.208;2023-01-10T07:45:07;8.30;;;1.93;;
18090;SDS011;9172;49.948;9.208;2023-01-10T07:47:38;8.40;;;1.80;;
18090;SDS011;9172;49.948;9.208;2023-01-10T07:50:07;7.80;;;1.83;;
18090;SDS011;9172;49.948;9.208;2023-01-10T07:52:39;7.23;;;2.07;;
18090;SDS011;9172;49.948;9.208;2023-01-10T07:55:09;8.63;;;1.77;;
18090;SDS011;9172;49.948;9.208;2023-01-10T07:57:38;5.80;;;1.37;;
18090;SDS011;9172;49.948;9.208;2023-01-10T08:00:09;10.73;;;2.00;;
18090;SDS011;9172;49.948;9.208;2023-01-10T08:02:39;7.03;;;1.80;;
18090;SDS011;9172;49.948;9.208;2023-01-10T08:05:08;2.67;;;1.50;;
18090;SDS011;9172;49.948;9.208;2023-01-10T08:07:37;7.67;;;1.73;;
18090;SDS011;9172;49.948;9.208;2023-01-10T08:10:06;5.77;;;2.13;;
18090;SDS011;9172;49.948;9.208;2023-01-10T08:12:36;4.87;;;1.80;;
18090;SDS011;9172;49.948;9.208;2023-01-10T08:15:05;5.90;;;1.57;;
18090;SDS011;9172;49.948;9.208;2023-01-10T08:17:36;9.47;;;1.90;;
18090;SDS011;9172;49.948;9.208;2023-01-10T08:20:05;9.70;;;1.90;;
18090;SDS011;9172;49.948;9.208;2023-01-10T08:22:36;5.30;;;1.67;;
18090;SDS011;9172;49.948;9.208;2023-01-10T08:25:05;8.00;;;1.97;;
18090;SDS011;9172;49.948;9.208;2023-01-10T08:27:35;7.07;;;1.67;;
18090;SDS011;9172;49.948;9.208;2023-01-10T08:30:06;4.40;;;1.90;;
18090;SDS011;9172;49.948;9.208;2023-01-10T08:32:36;5.40;;;1.70;;
18090;SDS011;9172;49.948;9.208;2023-01-10T08:35:06;3.63;;;1.97;;
18090;SDS011;9172;49.948;9.208;2023-01-10T08:37:35;7.17;;;1.80;;
18090;SDS011;9172;49.948;9.208;2023-01-10T08:40:05;8.00;;;2.27;;
18090;SDS011;9172;49.948;9.208;2023-01-10T08:42:36;9.73;;;2.13;;
18090;SDS011;9172;49.948;9.208;2023-01-10T08:45:07;11.90;;;2.57;;
18090;SDS011;9172;49.948;9.208;2023-01-10T08:47:36;10.80;;;2.20;;
18090;SDS011;9172;49.948;9.208;2023-01-10T08:50:06;6.70;;;1.83;;
18090;SDS011;9172;49.948;9.208;2023-01-10T08:52:38;6.57;;;2.03;;
18090;SDS011;9172;49.948;9.208;2023-01-10T08:55:08;13.57;;;2.40;;
18090;SDS011;9172;49.948;9.208;2023-01-10T08:57:37;13.53;;;2.80;;
18090;SDS011;9172;49.948;9.208;2023-01-10T09:00:08;5.47;;;1.77;;
18090;SDS011;9172;49.948;9.208;2023-01-10T09:02:40;12.23;;;2.13;;
18090;SDS011;9172;49.948;9.208;2023-01-10T09:05:09;6.40;;;1.90;;
18090;SDS011;9172;49.948;9.208;2023-01-10T09:07:39;9.73;;;2.50;;
18090;SDS011;9172;49.948;9.208;2023-01-10T09:10:10;14.17;;;2.53;;
18090;SDS011;9172;49.948;9.208;2023-01-10T09:12:38;9.53;;;2.80;;
18090;SDS011;9172;49.948;9.208;2023-01-10T09:15:25;23.67;;;3.53;;
18090;SDS011;9172;49.948;9.208;2023-01-10T09:17:55;11.40;;;3.13;;
18090;SDS011;9172;49.948;9.208;2023-01-10T09:20:26;18.47;;;2.80;;
18090;SDS011;9172;49.948;9.208;2023-01-10T09:22:55;4.13;;;1.70;;
18090;SDS011;9172;49.948;9.208;2023-01-10T09:25:25;7.50;;;2.30;;
18090;SDS011;9172;49.948;9.208;2023-01-10T09:27:55;11.63;;;2.60;;
18090;SDS011;9172;49.948;9.208;2023-01-10T09:30:26;10.60;;;2.03;;
18090;SDS011;9172;49.948;9.208;2023-01-10T09:32:55;13.50;;;2.47;;
18090;SDS011;9172;49.948;9.208;2023-01-10T09:35:25;18.67;;;2.33;;
18090;SDS011;9172;49.948;9.208;2023-01-10T09:37:55;9.33;;;2.47;;
18090;SDS011;9172;49.948;9.208;2023-01-10T09:40:29;8.80;;;2.53;;
18090;SDS011;9172;49.948;9.208;2023-01-10T09:43:03;7.53;;;2.20;;
18090;SDS011;9172;49.948;9.208;2023-01-10T09:45:37;4.97;;;1.80;;
18090;SDS011;9172;49.948;9.208;2023-01-10T09:48:10;8.50;;;2.23;;
18090;SDS011;9172;49.948;9.208;2023-01-10T09:50:43;13.13;;;2.27;;
18090;SDS011;9172;49.948;9.208;2023-01-10T09:53:15;10.43;;;2.20;;
18090;SDS011;9172;49.948;9.208;2023-01-10T09:55:47;9.20;;;2.33;;
18090;SDS011;9172;49.948;9.208;2023-01-10T09:58:19;10.73;;;2.70;;
18090;SDS011;9172;49.948;9.208;2023-01-10T10:00:53;11.20;;;2.53;;
18090;SDS011;9172;49.948;9.208;2023-01-10T10:03:24;13.90;;;2.33;;
18090;SDS011;9172;49.948;9.208;2023-01-10T10:05:56;10.77;;;1.67;;
18090;SDS011;9172;49.948;9.208;2023-01-10T10:08:25;5.87;;;1.57;;
18090;SDS011;9172;49.948;9.208;2023-01-10T10:10:56;9.47;;;2.20;;
18090;SDS011;9172;49.948;9.208;2023-01-10T10:13:32;10.70;;;2.20;;
18090;SDS011;9172;49.948;9.208;2023-01-10T10:16:06;9.50;;;2.27;;
18090;SDS011;9172;49.948;9.208;2023-01-10T10:18:39;12.20;;;1.93;;
18090;SDS011;9172;49.948;9.208;2023-01-10T10:21:12;9.53;;;1.73;;
18090;SDS011;9172;49.948;9.208;2023-01-10T10:23:47;13.33;;;2.30;;
18090;SDS011;9172;49.948;9.208;2023-01-10T10:26:26;8.57;;;1.90;;
18090;SDS011;9172;49.948;9.208;2023-01-10T10:29:06;11.37;;;1.70;;
18090;SDS011;9172;49.948;9.208;2023-01-10T10:31:49;8.13;;;1.50;;
18090;SDS011;9172;49.948;9.208;2023-01-10T10:34:28;9.37;;;2.27;;
18090;SDS011;9172;49.948;9.208;2023-01-10T10:37:01;8.23;;;2.30;;
18090;SDS011;9172;49.948;9.208;2023-01-10T10:39:33;6.43;;;1.80;;
18090;SDS011;9172;49.948;9.208;2023-01-10T10:42:04;6.03;;;2.10;;
18090;SDS011;9172;49.948;9.208;2023-01-10T10:44:38;8.93;;;1.97;;
18090;SDS011;9172;49.948;9.208;2023-01-10T10:47:11;4.70;;;1.67;;
18090;SDS011;9172;49.948;9.208;2023-01-10T10:49:42;7.93;;;2.37;;
18090;SDS011;9172;49.948;9.208;2023-01-10T10:52:18;11.97;;;1.90;;
18090;SDS011;9172;49.948;9.208;2023-01-10T10:54:51;7.63;;;1.80;;
18090;SDS011;9172;49.948;9.208;2023-01-10T10:57:21;9.17;;;2.13;;
18090;SDS011;9172;49.948;9.208;2023-01-10T10:59:52;8.93;;;1.77;;
18090;SDS011;9172;49.948;9.208;2023-01-10T11:02:25;8.30;;;2.00;;
18090;SDS011;9172;49.948;9.208;2023-01-10T11:04:56;9.30;;;2.23;;
18090;SDS011;9172;49.948;9.208;2023-01-10T11:07:28;7.47;;;1.70;;
18090;SDS011;9172;49.948;9.208;2023-01-10T11:10:00;12.90;;;2.60;;
18090;SDS011;9172;49.948;9.208;2023-01-10T11:12:44;9.40;;;1.93;;
18090;SDS011;9172;49.948;9.208;2023-01-10T11:15:34;7.50;;;2.03;;
18090;SDS011;9172;49.948;9.208;2023-01-10T11:18:09;7.33;;;2.13;;
18090;SDS011;9172;49.948;9.208;2023-01-10T11:20:46;6.60;;;1.77;;
18090;SDS011;9172;49.948;9.208;2023-01-10T11:26:10;7.87;;;2.17;;
18090;SDS011;9172;49.948;9.208;2023-01-10T11:28:50;8.77;;;2.43;;
18090;SDS011;9172;49.948;9.208;2023-01-10T11:31:27;16.23;;;2.33;;
18090;SDS011;9172;49.948;9.208;2023-01-10T11:33:57;6.13;;;1.70;;
18090;SDS011;9172;49.948;9.208;2023-01-10T11:36:28;7.10;;;2.47;;
18090;SDS011;9172;49.948;9.208;2023-01-10T11:39:04;9.43;;;2.00;;
18090;SDS011;9172;49.948;9.208;2023-01-10T11:41:33;6.00;;;1.73;;
18090;SDS011;9172;49.948;9.208;2023-01-10T11:44:14;5.60;;;1.83;;
18090;SDS011;9172;49.948;9.208;2023-01-10T11:46:45;13.97;;;2.13;;
18090;SDS011;9172;49.948;9.208;2023-01-10T11:49:16;19.73;;;2.73;;
18090;SDS011;9172;49.948;9.208;2023-01-10T11:51:49;10.60;;;2.33;;
18090;SDS011;9172;49.948;9.208;2023-01-10T11:54:19;10.57;;;1.83;;
18090;SDS011;9172;49.948;9.208;2023-01-10T11:56:53;15.27;;;2.60;;
18090;SDS011;9172;49.948;9.208;2023-01-10T11:59:22;8.00;;;1.93;;
18090;SDS011;9172;49.948;9.208;2023-01-10T12:01:53;11.00;;;2.27;;
18090;SDS011;9172;49.948;9.208;2023-01-10T12:04:27;7.53;;;2.03;;
18090;SDS011;9172;49.948;9.208;2023-01-10T12:06:58;12.30;;;3.90;;
18090;SDS011;9172;49.948;9.208;2023-01-10T12:09:37;16.43;;;2.93;;
18090;SDS011;9172;49.948;9.208;2023-01-10T12:12:14;12.73;;;2.57;;
18090;SDS011;9172;49.948;9.208;2023-01-10T12:14:45;8.07;;;1.97;;
18090;SDS011;9172;49.948;9.208;2023-01-10T12:17:18;6.87;;;2.30;;
18090;SDS011;9172;49.948;9.208;2023-01-10T12:19:49;7.37;;;2.10;;
18090;SDS011;9172;49.948;9.208;2023-01-10T12:22:21;17.37;;;2.63;;
18090;SDS011;9172;49.948;9.208;2023-01-10T12:24:54;7.60;;;2.20;;
18090;SDS011;9172;49.948;9.208;2023-01-10T12:27:24;12.33;;;2.40;;
18090;SDS011;9172;49.948;9.208;2023-01-10T12:29:58;9.40;;;2.00;;
18090;SDS011;9172;49.948;9.208;2023-01-10T12:32:33;8.60;;;2.03;;
18090;SDS011;9172;49.948;9.208;2023-01-10T12:35:03;14.33;;;3.27;;
18090;SDS011;9172;49.948;9.208;2023-01-10T12:37:36;10.43;;;2.77;;
18090;SDS011;9172;49.948;9.208;2023-01-10T12:40:10;16.13;;;3.00;;
18090;SDS011;9172;49.948;9.208;2023-01-10T12:42:50;5.87;;;2.50;;
18090;SDS011;9172;49.948;9.208;2023-01-10T12:45:39;14.90;;;2.40;;
18090;SDS011;9172;49.948;9.208;2023-01-10T12:48:16;9.90;;;2.03;;
18090;SDS011;9172;49.948;9.208;2023-01-10T12:50:51;8.73;;;2.40;;
18090;SDS011;9172;49.948;9.208;2023-01-10T12:53:27;12.93;;;2.30;;
18090;SDS011;9172;49.948;9.208;2023-01-10T12:55:57;10.53;;;2.87;;
18090;SDS011;9172;49.948;9.208;2023-01-10T12:58:33;10.60;;;2.80;;
18090;SDS011;9172;49.948;9.208;2023-01-10T13:01:04;18.10;;;5.07;;
18090;SDS011;9172;49.948;9.208;2023-01-10T13:03:35;10.97;;;3.10;;
18090;SDS011;9172;49.948;9.208;2023-01-10T13:06:05;8.17;;;2.30;;
18090;SDS011;9172;49.948;9.208;2023-01-10T13:08:35;14.20;;;3.10;;
18090;SDS011;9172;49.948;9.208;2023-01-10T13:13:46;9.47;;;2.67;;
18090;SDS011;9172;49.948;9.208;2023-01-10T13:16:19;10.53;;;2.70;;
18090;SDS011;9172;49.948;9.208;2023-01-10T13:21:33;13.90;;;2.60;;
18090;SDS011;9172;49.948;9.208;2023-01-10T13:24:03;10.57;;;2.63;;
18090;SDS011;9172;49.948;9.208;2023-01-10T13:26:45;10.33;;;2.30;;
18090;SDS011;9172;49.948;9.208;2023-01-10T13:29:18;9.33;;;2.10;;
18090;SDS011;9172;49.948;9.208;2023-01-10T13:32:00;11.03;;;2.60;;
18090;SDS011;9172;49.948;9.208;2023-01-10T13:34:31;11.47;;;2.83;;
18090;SDS011;9172;49.948;9.208;2023-01-10T13:37:03;11.97;;;2.20;;
18090;SDS011;9172;49.948;9.208;2023-01-10T13:39:35;10.97;;;2.43;;
18090;SDS011;9172;49.948;9.208;2023-01-10T13:42:23;9.27;;;2.00;;
18090;SDS011;9172;49.948;9.208;2023-01-10T13:45:14;7.03;;;2.30;;
18090;SDS011;9172;49.948;9.208;2023-01-10T13:47:56;11.20;;;2.40;;
18090;SDS011;9172;49.948;9.208;2023-01-10T13:50:44;10.07;;;2.00;;
18090;SDS011;9172;49.948;9.208;2023-01-10T13:56:27;6.47;;;2.27;;
18090;SDS011;9172;49.948;9.208;2023-01-10T13:59:01;9.23;;;2.43;;
18090;SDS011;9172;49.948;9.208;2023-01-10T14:01:49;14.10;;;2.80;;
18090;SDS011;9172;49.948;9.208;2023-01-10T14:07:30;8.00;;;2.57;;
18090;SDS011;9172;49.948;9.208;2023-01-10T14:10:01;12.17;;;2.47;;
18090;SDS011;9172;49.948;9.208;2023-01-10T14:12:33;11.37;;;2.97;;
18090;SDS011;9172;49.948;9.208;2023-01-10T14:15:06;12.23;;;2.47;;
18090;SDS011;9172;49.948;9.208;2023-01-10T14:17:51;12.47;;;2.67;;
18090;SDS011;9172;49.948;9.208;2023-01-10T14:20:23;9.63;;;2.30;;
18090;SDS011;9172;49.948;9.208;2023-01-10T14:22:57;9.07;;;2.30;;
18090;SDS011;9172;49.948;9.208;2023-01-10T14:25:29;12.93;;;2.77;;
18090;SDS011;9172;49.948;9.208;2023-01-10T14:28:00;14.03;;;3.00;;
18090;SDS011;9172;49.948;9.208;2023-01-10T14:30:32;10.67;;;2.17;;
18090;SDS011;9172;49.948;9.208;2023-01-10T14:33:03;9.70;;;2.70;;
18090;SDS011;9172;49.948;9.208;2023-01-10T14:35:35;13.27;;;2.23;;
18090;SDS011;9172;49.948;9.208;2023-01-10T14:38:06;11.53;;;2.60;;
18090;SDS011;9172;49.948;9.208;2023-01-10T14:40:40;12.27;;;2.90;;
18090;SDS011;9172;49.948;9.208;2023-01-10T14:43:12;9.73;;;2.53;;
18090;SDS011;9172;49.948;9.208;2023-01-10T14:45:48;12.53;;;2.63;;
18090;SDS011;9172;49.948;9.208;2023-01-10T14:48:27;9.43;;;2.40;;
18090;SDS011;9172;49.948;9.208;2023-01-10T14:51:12;10.67;;;3.10;;
18090;SDS011;9172;49.948;9.208;2023-01-10T14:53:52;11.00;;;2.57;;
18090;SDS011;9172;49.948;9.208;2023-01-10T14:56:25;14.03;;;2.30;;
18090;SDS011;9172;49.948;9.208;2023-01-10T14:58:55;13.90;;;2.63;;
18090;SDS011;9172;49.948;9.208;2023-01-10T15:01:25;15.83;;;3.20;;
18090;SDS011;9172;49.948;9.208;2023-01-10T15:03:56;14.30;;;2.30;;
18090;SDS011;9172;49.948;9.208;2023-01-10T15:06:26;9.60;;;2.30;;
18090;SDS011;9172;49.948;9.208;2023-01-10T15:08:56;11.27;;;3.50;;
18090;SDS011;9172;49.948;9.208;2023-01-10T15:11:28;14.00;;;2.83;;
18090;SDS011;9172;49.948;9.208;2023-01-10T15:13:59;19.17;;;2.83;;
18090;SDS011;9172;49.948;9.208;2023-01-10T15:16:32;16.47;;;2.80;;
18090;SDS011;9172;49.948;9.208;2023-01-10T15:19:04;14.00;;;2.50;;
18090;SDS011;9172;49.948;9.208;2023-01-10T15:21:40;7.90;;;1.90;;
18090;SDS011;9172;49.948;9.208;2023-01-10T15:24:27;12.83;;;2.90;;
18090;SDS011;9172;49.948;9.208;2023-01-10T15:27:00;11.10;;;2.30;;
18090;SDS011;9172;49.948;9.208;2023-01-10T15:29:30;10.80;;;2.43;;
18090;SDS011;9172;49.948;9.208;2023-01-10T15:32:06;12.07;;;2.90;;
18090;SDS011;9172;49.948;9.208;2023-01-10T15:34:35;12.07;;;2.40;;
18090;SDS011;9172;49.948;9.208;2023-01-10T15:37:05;13.60;;;2.87;;
18090;SDS011;9172;49.948;9.208;2023-01-10T15:39:36;11.13;;;2.73;;
18090;SDS011;9172;49.948;9.208;2023-01-10T15:42:07;15.90;;;2.47;;
18090;SDS011;9172;49.948;9.208;2023-01-10T15:44:38;8.80;;;2.67;;
18090;SDS011;9172;49.948;9.208;2023-01-10T15:47:32;10.43;;;2.73;;